Time;durP1;ratioP1;P1;durP2;ratioP2;P2;SDS_P1;SDS_P2;PMS_P1;PMS_P2;Temp;Humidity;BMP_temperature;BMP_pressure;BME280_temperature;BME280_humidity;BME280_pressure;Samples;Min_cycle;Max_cycle;Signal;HPM_P1;HPM_P2
2022/10/16 00:00:35;;;;;;;908.27;829.13;;;15.70;33.40;;;;;;4980421;28;20419;-71
2022/10/16 00:03:01;;;;;;;560.13;524.50;;;15.70;33.00;;;;;;4980653;28;20909;-71
2022/10/16 00:05:27;;;;;;;602.43;559.27;;;15.70;33.70;;;;;;4980224;28;20452;-71
2022/10/16 00:07:53;;;;;;;528.07;494.50;;;15.70;33.20;;;;;;4980653;28;20757;-71
2022/10/16 00:10:18;;;;;;;655.47;607.57;;;15.60;33.50;;;;;;4980366;28;20193;-71
2022/10/16 00:12:44;;;;;;;865.33;792.87;;;15.60;33.20;;;;;;4973960;28;20668;-71
2022/10/16 00:15:09;;;;;;;773.13;711.93;;;15.50;33.70;;;;;;4985494;28;20204;-72
2022/10/16 00:17:35;;;;;;;712.07;657.77;;;15.50;34.00;;;;;;4980241;28;20223;-71
2022/10/16 00:20:01;;;;;;;622.00;575.47;;;15.50;34.00;;;;;;4980636;28;20181;-69
2022/10/16 00:22:26;;;;;;;955.10;869.37;;;15.50;34.40;;;;;;4979859;28;20213;-71
2022/10/16 00:24:52;;;;;;;591.13;552.13;;;15.50;34.00;;;;;;4980553;28;20858;-71
2022/10/16 00:27:18;;;;;;;554.53;518.37;;;15.50;33.90;;;;;;4979926;28;20226;-71
2022/10/16 00:29:43;;;;;;;447.73;422.23;;;15.50;33.80;;;;;;4980443;28;20184;-72
2022/10/16 00:32:09;;;;;;;499.17;466.40;;;15.40;34.50;;;;;;4980933;28;20212;-70
2022/10/16 00:34:34;;;;;;;521.57;487.23;;;15.40;34.30;;;;;;4980622;28;20600;-72
2022/10/16 00:37:00;;;;;;;834.17;765.43;;;15.30;34.50;;;;;;4981255;28;20590;-73
2022/10/16 00:39:26;;;;;;;501.40;470.83;;;15.20;34.70;;;;;;4980639;28;20435;-71
2022/10/16 00:41:51;;;;;;;741.60;682.20;;;15.20;35.50;;;;;;4980250;28;20205;-71
2022/10/16 00:44:44;;;;;;;673.17;622.83;;;15.20;36.00;;;;;;4981380;28;20196;-73
2022/10/16 00:47:12;;;;;;;405.93;382.97;;;15.10;35.50;;;;;;4980540;28;20185;-72
2022/10/16 00:49:38;;;;;;;525.37;488.77;;;15.10;35.50;;;;;;4977913;28;20585;-72
2022/10/16 00:52:05;;;;;;;662.03;615.17;;;15.20;35.60;;;;;;4978679;28;20822;-72
2022/10/16 00:54:32;;;;;;;797.70;734.13;;;15.10;35.20;;;;;;4978821;28;20192;-73
2022/10/16 00:57:01;;;;;;;674.10;624.73;;;15.10;35.50;;;;;;4978304;28;20981;-72
2022/10/16 00:59:31;;;;;;;540.30;503.67;;;15.10;35.00;;;;;;4976843;28;20924;-73
2022/10/16 01:01:58;;;;;;;438.00;409.10;;;15.20;35.10;;;;;;4978373;28;20460;-73
2022/10/16 01:04:25;;;;;;;391.83;368.47;;;15.10;35.50;;;;;;4979428;28;20842;-73
2022/10/16 01:07:24;;;;;;;954.77;870.53;;;15.20;35.60;;;;;;4983816;28;20451;-72
2022/10/16 01:10:07;;;;;;;636.23;588.47;;;15.20;34.90;;;;;;4988471;28;20416;-72
2022/10/16 01:13:03;;;;;;;763.13;706.70;;;15.20;34.80;;;;;;4979141;28;20412;-72
2022/10/16 01:16:14;;;;;;;325.93;308.33;;;15.30;33.90;;;;;;5007100;28;20524;-71
2022/10/16 01:19:11;;;;;;;406.07;381.13;;;15.30;33.70;;;;;;4997643;28;20425;-72
2022/10/16 01:21:42;;;;;;;811.13;742.63;;;15.40;33.40;;;;;;4998822;28;20429;-71
2022/10/16 01:24:47;;;;;;;614.87;568.57;;;15.40;33.30;;;;;;4998987;28;20408;-71
2022/10/16 01:27:22;;;;;;;476.60;444.93;;;15.40;33.50;;;;;;4997499;28;20508;-71
2022/10/16 01:30:09;;;;;;;682.33;626.37;;;15.50;33.00;;;;;;4998581;28;20459;-69
2022/10/16 01:32:43;;;;;;;439.43;411.33;;;15.50;32.30;;;;;;4997958;28;20408;-69
2022/10/16 01:35:14;;;;;;;432.70;407.23;;;15.60;32.00;;;;;;4997551;28;20451;-71
2022/10/16 01:38:17;;;;;;;477.00;449.07;;;15.60;31.80;;;;;;4991790;28;20417;-70
2022/10/16 01:40:47;;;;;;;550.13;514.30;;;15.60;31.40;;;;;;4974221;28;20507;-71
2022/10/16 01:43:18;;;;;;;550.87;512.07;;;15.70;30.90;;;;;;4975447;28;20465;-71
2022/10/16 01:45:45;;;;;;;351.43;332.47;;;15.70;31.90;;;;;;5006944;23;20509;-74
2022/10/16 01:48:16;;;;;;;637.27;586.33;;;15.60;31.80;;;;;;5013889;28;20418;-74
2022/10/16 01:50:44;;;;;;;894.20;828.77;;;15.70;30.80;;;;;;5013789;28;20406;-73
2022/10/16 01:53:13;;;;;;;378.17;356.43;;;15.70;30.70;;;;;;5013874;28;20781;-74
2022/10/16 01:55:44;;;;;;;454.50;424.90;;;15.70;31.00;;;;;;5002111;28;20904;-74
2022/10/16 01:58:13;;;;;;;430.33;403.17;;;15.70;31.10;;;;;;4993993;28;20420;-74
2022/10/16 02:00:43;;;;;;;790.13;722.07;;;15.70;30.80;;;;;;4993915;28;20439;-74
2022/10/16 02:03:12;;;;;;;642.37;596.80;;;15.70;30.70;;;;;;4992504;28;20463;-74
2022/10/16 02:05:42;;;;;;;857.53;774.30;;;15.80;30.80;;;;;;4994388;28;20440;-73
2022/10/16 02:08:08;;;;;;;428.10;402.90;;;15.80;30.00;;;;;;4993879;28;20403;-73
2022/10/16 02:10:35;;;;;;;564.03;521.90;;;15.90;30.10;;;;;;4993778;28;20481;-72
2022/10/16 02:13:06;;;;;;;363.30;341.03;;;15.90;29.60;;;;;;4993554;28;20184;-74
2022/10/16 02:15:31;;;;;;;453.80;422.80;;;16.00;29.80;;;;;;4993881;28;20549;-72
2022/10/16 02:17:57;;;;;;;604.23;553.63;;;16.00;29.70;;;;;;5002229;28;20479;-72
2022/10/16 02:20:28;;;;;;;592.77;542.67;;;16.00;29.30;;;;;;4993746;28;20176;-72
2022/10/16 02:22:55;;;;;;;488.07;455.47;;;16.10;29.80;;;;;;4993409;28;20204;-74
2022/10/16 02:25:30;;;;;;;799.37;729.13;;;16.00;30.10;;;;;;4993600;28;20550;-72
2022/10/16 02:28:05;;;;;;;885.73;808.47;;;16.00;29.90;;;;;;4993623;28;20420;-72
2022/10/16 02:30:42;;;;;;;457.03;431.33;;;16.00;30.30;;;;;;5007709;28;20521;-72
2022/10/16 02:33:10;;;;;;;1071.13;967.63;;;16.00;31.00;;;;;;4992281;28;20430;-72
2022/10/16 02:35:38;;;;;;;820.43;748.40;;;16.00;31.00;;;;;;4993708;28;20432;-72
2022/10/16 02:38:04;;;;;;;580.47;532.90;;;16.00;31.00;;;;;;4993362;28;20429;-73
2022/10/16 02:40:30;;;;;;;360.37;336.57;;;16.00;30.50;;;;;;4994309;28;20432;-72
2022/10/16 02:42:56;;;;;;;620.17;578.73;;;16.00;30.70;;;;;;4993218;28;20459;-73
2022/10/16 02:45:22;;;;;;;825.70;761.50;;;16.10;30.50;;;;;;4991620;28;20823;-72
2022/10/16 02:47:48;;;;;;;516.53;483.00;;;16.00;30.00;;;;;;4992587;28;20180;-72
2022/10/16 02:50:15;;;;;;;657.87;606.17;;;16.00;30.40;;;;;;5005955;28;20469;-75
2022/10/16 02:52:40;;;;;;;445.90;418.27;;;16.00;30.60;;;;;;5012285;28;20434;-73
2022/10/16 02:55:06;;;;;;;591.30;543.23;;;16.00;30.30;;;;;;5012651;28;20877;-73
2022/10/16 02:57:32;;;;;;;784.33;714.37;;;16.00;30.50;;;;;;5011784;28;20179;-73
2022/10/16 02:59:58;;;;;;;556.43;513.03;;;16.00;30.20;;;;;;5011354;28;20446;-73
2022/10/16 03:02:23;;;;;;;803.13;741.87;;;16.00;30.70;;;;;;4996117;28;20252;-73
2022/10/16 03:04:49;;;;;;;582.83;543.63;;;16.00;30.30;;;;;;4992831;28;20443;-72
2022/10/16 03:07:15;;;;;;;580.67;537.30;;;16.00;30.00;;;;;;4992673;28;20568;-73
2022/10/16 03:09:40;;;;;;;804.03;731.70;;;16.10;30.30;;;;;;4992805;28;20545;-72
2022/10/16 03:12:06;;;;;;;449.27;421.63;;;16.00;30.30;;;;;;4991882;28;20187;-72
2022/10/16 03:14:32;;;;;;;592.60;550.37;;;15.90;30.80;;;;;;5006125;28;20185;-73
2022/10/16 03:16:58;;;;;;;484.60;452.97;;;15.90;30.90;;;;;;4992781;28;20686;-73
2022/10/16 03:19:24;;;;;;;683.67;635.07;;;15.90;30.90;;;;;;4991257;28;20455;-73
2022/10/16 03:21:49;;;;;;;478.20;449.80;;;15.90;30.60;;;;;;4991215;28;20204;-71
2022/10/16 03:24:15;;;;;;;576.53;538.93;;;15.90;30.00;;;;;;4992673;28;20985;-73
2022/10/16 03:26:41;;;;;;;407.93;384.60;;;15.90;30.90;;;;;;4992623;28;20311;-73
2022/10/16 03:29:06;;;;;;;698.33;646.93;;;15.80;30.80;;;;;;5009044;28;20194;-73
2022/10/16 03:31:32;;;;;;;481.50;448.47;;;15.90;30.90;;;;;;5011896;28;20176;-72
2022/10/16 03:33:57;;;;;;;463.80;430.40;;;15.80;30.50;;;;;;5011008;28;20210;-73
2022/10/16 03:36:23;;;;;;;849.80;784.17;;;15.90;30.90;;;;;;5012171;28;20555;-73
2022/10/16 03:38:49;;;;;;;639.80;593.13;;;15.80;30.80;;;;;;4996716;28;20557;-73
2022/10/16 03:41:14;;;;;;;647.90;595.13;;;15.80;30.80;;;;;;4990910;28;20204;-72
2022/10/16 03:43:40;;;;;;;595.33;553.00;;;15.80;30.80;;;;;;4992261;28;20211;-73
2022/10/16 03:46:05;;;;;;;904.70;834.90;;;15.90;30.90;;;;;;4991034;28;20666;-73
2022/10/16 03:48:31;;;;;;;660.50;612.47;;;15.90;30.40;;;;;;4990944;28;20546;-73
2022/10/16 03:50:57;;;;;;;1014.57;925.07;;;15.80;30.80;;;;;;5008584;28;20188;-72
2022/10/16 03:53:23;;;;;;;605.23;555.73;;;15.80;30.80;;;;;;5011847;28;20541;-73
2022/10/16 03:55:49;;;;;;;682.40;633.97;;;15.80;30.80;;;;;;5010604;28;20446;-73
2022/10/16 03:58:14;;;;;;;877.63;807.77;;;15.70;30.90;;;;;;5000219;28;20428;-73
2022/10/16 04:00:47;;;;;;;741.87;680.93;;;15.70;31.50;;;;;;4992215;28;20679;-73
2022/10/16 04:03:13;;;;;;;821.50;761.07;;;15.60;33.50;;;;;;4992789;28;20693;-73
2022/10/16 04:05:39;;;;;;;565.73;529.63;;;15.60;33.60;;;;;;5007152;28;20585;-73
2022/10/16 04:08:04;;;;;;;891.30;823.70;;;15.50;34.00;;;;;;5010536;28;20659;-73
2022/10/16 04:10:30;;;;;;;724.23;678.27;;;15.50;34.20;;;;;;5010392;28;20419;-73
2022/10/16 04:12:56;;;;;;;560.93;526.43;;;15.30;35.60;;;;;;5007222;28;20181;-73
2022/10/16 04:15:25;;;;;;;957.73;884.17;;;15.30;35.70;;;;;;5005941;28;20203;-72
2022/10/16 04:17:51;;;;;;;665.23;622.47;;;15.30;35.70;;;;;;5011381;28;20190;-73
2022/10/16 04:20:17;;;;;;;748.83;697.33;;;15.30;35.60;;;;;;5011409;28;20445;-74
2022/10/16 04:22:43;;;;;;;744.77;690.60;;;15.20;36.10;;;;;;5011897;28;20466;-73
2022/10/16 04:25:09;;;;;;;917.73;845.30;;;15.10;37.00;;;;;;5015264;28;20927;-74
2022/10/16 04:27:35;;;;;;;429.07;405.13;;;15.10;36.80;;;;;;5000187;28;20181;-74
2022/10/16 04:30:00;;;;;;;433.00;408.43;;;15.10;37.60;;;;;;4995667;28;20419;-73
2022/10/16 04:32:27;;;;;;;752.73;696.27;;;15.20;37.30;;;;;;4995434;28;20268;-73
2022/10/16 04:34:52;;;;;;;753.60;705.17;;;15.20;36.60;;;;;;4995703;28;20263;-74
2022/10/16 04:37:18;;;;;;;677.10;633.00;;;15.10;37.30;;;;;;4995460;28;20463;-73
2022/10/16 04:39:44;;;;;;;855.07;791.63;;;15.10;37.60;;;;;;5010397;28;20227;-74
2022/10/16 04:42:10;;;;;;;729.67;681.57;;;15.10;37.90;;;;;;5014783;28;20562;-72
2022/10/16 04:44:36;;;;;;;957.53;891.70;;;15.00;38.30;;;;;;5013138;28;20497;-73
2022/10/16 04:47:02;;;;;;;520.63;489.33;;;15.00;39.00;;;;;;4994586;28;20240;-73
2022/10/16 04:49:27;;;;;;;602.47;562.93;;;15.00;39.10;;;;;;5006187;28;20267;-74
2022/10/16 04:51:53;;;;;;;843.03;785.13;;;15.00;39.40;;;;;;5002691;28;20180;-73
2022/10/16 04:54:18;;;;;;;833.07;775.23;;;15.00;38.80;;;;;;4995177;28;20180;-73
2022/10/16 04:56:47;;;;;;;514.53;485.20;;;15.00;39.10;;;;;;4995088;28;20230;-73
2022/10/16 04:59:14;;;;;;;851.47;786.77;;;14.90;39.90;;;;;;5002253;28;20549;-73
2022/10/16 05:01:40;;;;;;;601.13;559.90;;;14.90;39.60;;;;;;5005698;28;20415;-73
2022/10/16 05:04:06;;;;;;;738.87;689.27;;;14.90;39.80;;;;;;4998282;28;20427;-73
2022/10/16 05:06:31;;;;;;;1056.13;960.27;;;14.90;40.00;;;;;;4995020;28;20780;-74
2022/10/16 05:08:57;;;;;;;818.73;761.77;;;14.90;40.50;;;;;;4995009;28;20597;-73
2022/10/16 05:11:22;;;;;;;967.43;893.40;;;14.90;40.50;;;;;;5006590;28;20176;-74
2022/10/16 05:13:48;;;;;;;1093.03;990.37;;;14.80;40.40;;;;;;5014320;28;20187;-73
2022/10/16 05:16:14;;;;;;;654.97;614.93;;;14.80;40.50;;;;;;5014401;28;20199;-74
2022/10/16 05:18:39;;;;;;;509.90;476.17;;;14.80;40.60;;;;;;5009990;28;20180;-73
2022/10/16 05:21:05;;;;;;;758.80;699.50;;;14.80;41.40;;;;;;5008845;28;20194;-73
2022/10/16 05:23:31;;;;;;;597.70;557.73;;;14.80;40.80;;;;;;5014212;28;20238;-73
2022/10/16 05:25:58;;;;;;;883.77;824.57;;;14.80;41.00;;;;;;5014312;28;21031;-73
2022/10/16 05:28:28;;;;;;;561.87;524.73;;;14.70;41.00;;;;;;5013629;28;20246;-73
2022/10/16 05:30:54;;;;;;;425.20;397.07;;;14.50;43.10;;;;;;5013231;28;21017;-73
2022/10/16 05:33:21;;;;;;;691.23;641.73;;;14.50;43.30;;;;;;4994685;28;20432;-72
2022/10/16 05:35:47;;;;;;;613.30;574.70;;;14.50;42.90;;;;;;4993098;28;20614;-73
2022/10/16 05:38:13;;;;;;;448.97;419.47;;;14.50;43.20;;;;;;4994640;28;20415;-73
2022/10/16 05:40:39;;;;;;;885.67;810.53;;;14.50;43.10;;;;;;4996672;28;20238;-73
2022/10/16 05:43:04;;;;;;;741.40;690.83;;;14.50;42.90;;;;;;4994462;28;20987;-73
2022/10/16 05:45:30;;;;;;;796.20;737.90;;;14.40;43.40;;;;;;4993074;28;20459;-72
2022/10/16 05:47:56;;;;;;;871.90;802.83;;;14.20;45.00;;;;;;5011696;28;20188;-73
2022/10/16 05:50:21;;;;;;;644.77;595.87;;;14.20;45.00;;;;;;5001103;28;20187;-73
2022/10/16 05:52:47;;;;;;;1040.43;957.67;;;14.20;45.50;;;;;;4994483;28;20676;-72
2022/10/16 05:55:12;;;;;;;995.17;917.77;;;14.10;45.50;;;;;;4994195;28;20268;-73
2022/10/16 05:57:38;;;;;;;567.03;531.67;;;14.20;46.00;;;;;;4993174;28;20191;-71
2022/10/16 06:00:05;;;;;;;834.97;780.03;;;14.20;46.40;;;;;;5004154;28;20676;-71
2022/10/16 06:02:30;;;;;;;624.60;583.37;;;14.30;45.60;;;;;;5013281;28;20508;-72
2022/10/16 06:04:56;;;;;;;487.70;455.80;;;14.40;45.90;;;;;;5013827;28;20761;-71
2022/10/16 06:07:22;;;;;;;710.63;664.17;;;14.60;45.40;;;;;;5013622;28;20265;-72
2022/10/16 06:09:52;;;;;;;636.50;592.03;;;14.70;45.00;;;;;;5012442;28;20209;-72
2022/10/16 06:12:18;;;;;;;528.63;494.77;;;14.70;44.50;;;;;;5001706;28;20595;-71
2022/10/16 06:14:46;;;;;;;848.07;783.07;;;14.80;43.90;;;;;;5011869;28;20470;-72
2022/10/16 06:17:12;;;;;;;896.37;825.83;;;14.90;42.80;;;;;;4992868;28;20467;-72
2022/10/16 06:19:38;;;;;;;835.63;773.57;;;15.00;43.20;;;;;;4993714;28;20451;-72
2022/10/16 06:22:04;;;;;;;557.70;517.80;;;15.00;42.30;;;;;;5004876;28;20544;-72
2022/10/16 06:24:29;;;;;;;408.57;383.00;;;15.20;41.30;;;;;;4992731;28;20211;-72
2022/10/16 06:26:55;;;;;;;931.93;867.43;;;15.30;40.90;;;;;;5008362;28;20207;-72
2022/10/16 06:29:20;;;;;;;999.13;913.80;;;15.40;38.20;;;;;;4992478;28;20798;-72
2022/10/16 06:31:46;;;;;;;832.57;773.37;;;15.30;38.70;;;;;;4993767;28;20277;-71
2022/10/16 06:34:12;;;;;;;824.73;765.37;;;15.30;39.70;;;;;;5004970;28;20187;-71
2022/10/16 06:36:39;;;;;;;632.50;587.70;;;15.10;39.30;;;;;;5013165;28;20248;-71
2022/10/16 06:39:06;;;;;;;797.50;732.10;;;15.00;40.60;;;;;;5011868;28;20206;-72
2022/10/16 06:41:32;;;;;;;970.60;902.63;;;15.20;40.00;;;;;;5005561;28;20757;-71
2022/10/16 06:43:58;;;;;;;854.93;793.83;;;15.20;39.60;;;;;;4992007;28;20430;-71
2022/10/16 06:46:25;;;;;;;825.33;772.50;;;15.40;40.50;;;;;;4992234;28;20231;-70
2022/10/16 06:48:52;;;;;;;1073.10;982.80;;;15.50;39.10;;;;;;4993180;28;20521;-72
2022/10/16 06:51:20;;;;;;;560.97;524.80;;;15.70;37.90;;;;;;4991577;28;20506;-71
2022/10/16 06:53:50;;;;;;;902.93;829.73;;;16.00;37.20;;;;;;4992994;28;20511;-71
2022/10/16 06:56:21;;;;;;;856.87;793.70;;;16.10;35.90;;;;;;4993078;28;20440;-72
2022/10/16 06:58:47;;;;;;;460.00;434.07;;;16.40;36.60;;;;;;4991636;28;20952;-71
2022/10/16 07:01:14;;;;;;;687.97;641.40;;;16.50;33.50;;;;;;4992686;28;20416;-71
2022/10/16 07:03:41;;;;;;;796.53;732.90;;;16.70;32.70;;;;;;4992861;28;20463;-72
2022/10/16 07:06:09;;;;;;;475.43;446.87;;;16.80;31.30;;;;;;4992977;28;20428;-71
2022/10/16 07:08:37;;;;;;;618.47;577.50;;;16.90;31.80;;;;;;4991982;28;20801;-71
2022/10/16 07:11:08;;;;;;;994.67;919.97;;;16.90;31.80;;;;;;5006400;28;20411;-70
2022/10/16 07:13:37;;;;;;;1039.50;947.23;;;16.90;31.70;;;;;;4999085;28;20431;-72
2022/10/16 07:16:18;;;;;;;946.97;873.30;;;16.90;31.80;;;;;;4991419;28;20480;-72
2022/10/16 07:18:45;;;;;;;795.83;735.43;;;17.00;31.90;;;;;;4992754;28;20424;-72
2022/10/16 07:21:17;;;;;;;839.43;777.33;;;17.00;31.90;;;;;;4992556;28;20451;-72
2022/10/16 07:23:43;;;;;;;912.23;838.03;;;17.10;30.80;;;;;;4992774;28;20554;-73
2022/10/16 07:26:10;;;;;;;853.37;781.60;;;17.30;30.70;;;;;;4992834;28;20448;-72
2022/10/16 07:28:36;;;;;;;987.37;908.70;;;17.40;30.00;;;;;;4992713;28;20422;-72
2022/10/16 07:31:04;;;;;;;403.43;380.50;;;17.60;28.90;;;;;;4992469;28;20439;-72
2022/10/16 07:33:30;;;;;;;457.23;426.47;;;17.70;29.30;;;;;;4992733;28;20976;-72
2022/10/16 07:35:56;;;;;;;822.80;754.27;;;17.80;27.80;;;;;;4992517;28;20446;-72
2022/10/16 07:38:22;;;;;;;767.63;699.73;;;18.00;26.90;;;;;;4992706;28;20968;-73
2022/10/16 07:40:48;;;;;;;843.03;767.20;;;18.00;26.90;;;;;;4992586;28;20185;-71
2022/10/16 07:43:14;;;;;;;688.87;628.70;;;18.00;27.80;;;;;;4992550;28;20810;-71
2022/10/16 07:45:50;;;;;;;1213.00;999.90;;;18.10;27.80;;;;;;4993033;28;20455;-70
2022/10/16 07:48:17;;;;;;;856.37;778.60;;;18.20;27.40;;;;;;5003294;28;20473;-72
2022/10/16 07:50:43;;;;;;;997.47;916.60;;;18.30;26.80;;;;;;5000471;28;20474;-72
2022/10/16 07:53:09;;;;;;;747.10;680.70;;;18.40;26.70;;;;;;4993986;28;20424;-72
2022/10/16 07:55:34;;;;;;;1072.77;968.10;;;18.50;25.30;;;;;;4999213;28;20504;-72
2022/10/16 07:58:00;;;;;;;584.17;535.03;;;18.70;24.40;;;;;;4995310;28;20791;-71
2022/10/16 08:00:25;;;;;;;799.70;724.57;;;18.80;24.40;;;;;;4997025;28;20191;-72
2022/10/16 08:02:51;;;;;;;406.80;374.23;;;19.10;23.80;;;;;;4996566;28;20197;-73
2022/10/16 08:05:16;;;;;;;508.67;466.60;;;19.10;23.80;;;;;;4996774;28;20200;-74
2022/10/16 08:07:42;;;;;;;694.23;632.20;;;19.40;24.80;;;;;;4996978;28;20179;-73
2022/10/16 08:10:16;;;;;;;966.37;864.80;;;19.50;23.30;;;;;;4996734;28;20177;-73
2022/10/16 08:12:42;;;;;;;729.37;663.23;;;19.70;22.50;;;;;;4996874;28;20180;-73
2022/10/16 08:15:08;;;;;;;593.70;538.27;;;19.80;22.60;;;;;;5000378;28;20426;-73
2022/10/16 08:17:34;;;;;;;754.43;680.50;;;20.00;21.30;;;;;;5017170;28;20208;-73
2022/10/16 08:19:59;;;;;;;742.10;670.50;;;20.00;20.90;;;;;;5004164;28;20431;-73
2022/10/16 08:22:25;;;;;;;863.60;773.33;;;20.00;21.40;;;;;;4995662;28;20555;-73
2022/10/16 08:24:50;;;;;;;976.07;873.57;;;19.90;21.50;;;;;;4997053;28;20180;-73
2022/10/16 08:27:16;;;;;;;552.87;506.87;;;20.10;21.00;;;;;;4996222;28;20201;-72
2022/10/16 08:29:41;;;;;;;997.20;860.57;;;20.20;21.40;;;;;;5006101;28;20176;-71
2022/10/16 08:32:07;;;;;;;978.77;848.27;;;20.10;21.00;;;;;;5015790;28;20184;-72
2022/10/16 08:34:32;;;;;;;929.20;808.70;;;20.00;20.90;;;;;;5015422;28;20225;-72
2022/10/16 08:36:58;;;;;;;913.43;809.87;;;20.10;21.00;;;;;;5015702;28;20330;-72
2022/10/16 08:39:23;;;;;;;586.53;536.27;;;20.20;20.50;;;;;;5004538;28;20619;-71
2022/10/16 08:42:07;;;;;;;718.00;652.27;;;20.10;21.00;;;;;;4995435;28;20255;-73
2022/10/16 08:45:05;;;;;;;867.40;690.47;;;20.50;20.70;;;;;;4994338;28;20271;-72
2022/10/16 08:47:42;;;;;;;545.43;497.00;;;20.90;20.30;;;;;;4983713;28;20431;-72
2022/10/16 08:50:11;;;;;;;331.17;308.57;;;21.30;18.90;;;;;;4995549;28;20411;-70
2022/10/16 08:52:41;;;;;;;840.27;751.90;;;21.70;18.10;;;;;;4998660;28;20422;-71
2022/10/16 08:55:25;;;;;;;697.80;628.40;;;21.90;17.80;;;;;;5014488;28;20449;-71
2022/10/16 08:57:51;;;;;;;845.90;762.07;;;22.10;17.40;;;;;;5015039;28;20457;-74
2022/10/16 09:00:17;;;;;;;871.60;727.73;;;22.30;18.00;;;;;;5014772;28;20477;-72
2022/10/16 09:02:57;;;;;;;971.57;743.00;;;22.40;17.80;;;;;;5013272;28;20211;-72
2022/10/16 09:05:26;;;;;;;466.00;423.47;;;22.60;17.20;;;;;;5014750;28;20435;-72
2022/10/16 09:08:04;;;;;;;591.90;537.40;;;22.70;16.80;;;;;;5000109;28;20420;-72
2022/10/16 09:10:35;;;;;;;653.67;586.83;;;22.90;16.80;;;;;;4994626;28;20407;-73
2022/10/16 09:13:16;;;;;;;803.03;715.20;;;23.00;15.60;;;;;;4994917;28;20423;-72
2022/10/16 09:16:03;;;;;;;767.13;693.73;;;23.20;15.50;;;;;;4995070;28;20439;-72
2022/10/16 09:19:02;;;;;;;797.03;713.17;;;23.40;14.20;;;;;;4995016;28;20518;-72
2022/10/16 09:21:35;;;;;;;669.63;610.87;;;23.50;13.50;;;;;;5005836;28;20434;-72
2022/10/16 09:24:18;;;;;;;953.70;848.67;;;23.50;12.80;;;;;;5014506;28;20431;-72
2022/10/16 09:26:45;;;;;;;1368.03;999.90;;;23.50;12.20;;;;;;5014410;28;20464;-72
2022/10/16 09:29:19;;;;;;;801.50;719.23;;;23.30;11.40;;;;;;5013644;28;20422;-73
2022/10/16 09:31:46;;;;;;;922.60;824.30;;;23.10;12.70;;;;;;5013147;28;20842;-73
2022/10/16 09:34:47;;;;;;;715.83;637.97;;;23.10;12.50;;;;;;5013268;28;20825;-70
2022/10/16 09:37:16;;;;;;;506.00;463.53;;;22.90;13.10;;;;;;4982974;28;20952;-71
2022/10/16 09:39:46;;;;;;;711.83;659.83;;;22.80;11.80;;;;;;4993451;28;20412;-71
2022/10/16 09:42:38;;;;;;;561.97;512.77;;;22.80;12.30;;;;;;4994232;28;20470;-71
2022/10/16 09:45:04;;;;;;;1034.07;862.27;;;22.90;12.10;;;;;;4991026;28;20424;-72
2022/10/16 09:47:31;;;;;;;736.83;680.33;;;23.00;12.20;;;;;;4993573;28;20463;-72
2022/10/16 09:50:05;;;;;;;754.07;696.50;;;23.00;11.90;;;;;;4995421;28;20523;-72
2022/10/16 09:52:32;;;;;;;819.27;701.17;;;23.10;11.60;;;;;;4993298;28;20945;-73
2022/10/16 09:55:12;;;;;;;842.80;753.57;;;23.20;11.70;;;;;;4992873;28;20435;-72
2022/10/16 09:57:48;;;;;;;644.60;595.97;;;23.20;10.70;;;;;;4993972;28;20486;-72
2022/10/16 10:00:16;;;;;;;914.83;731.43;;;23.20;11.20;;;;;;4994256;28;20455;-72
2022/10/16 10:02:42;;;;;;;1026.60;838.50;;;23.10;11.10;;;;;;4995968;28;20471;-72
2022/10/16 10:05:21;;;;;;;826.17;739.77;;;23.20;11.00;;;;;;5013503;28;20418;-72
2022/10/16 10:08:02;;;;;;;663.30;601.10;;;23.20;11.30;;;;;;5013416;28;20645;-71
2022/10/16 10:10:31;;;;;;;681.87;625.00;;;23.10;10.70;;;;;;5010577;28;20469;-71
2022/10/16 10:12:57;;;;;;;872.37;773.13;;;23.20;11.10;;;;;;5013212;28;20472;-72
2022/10/16 10:15:28;;;;;;;529.40;489.10;;;23.20;10.90;;;;;;5013678;28;20439;-74
2022/10/16 10:17:56;;;;;;;402.23;373.53;;;23.10;10.70;;;;;;4998827;28;20827;-72
2022/10/16 10:20:40;;;;;;;738.43;683.37;;;23.00;10.60;;;;;;4992592;28;20472;-71
2022/10/16 10:23:23;;;;;;;427.33;397.80;;;22.90;10.50;;;;;;4993573;28;20809;-72
2022/10/16 10:26:22;;;;;;;1083.47;854.23;;;22.80;10.70;;;;;;4994519;28;20431;-74
2022/10/16 10:28:57;;;;;;;712.70;659.30;;;22.70;10.90;;;;;;4994201;28;20882;-73
2022/10/16 10:31:44;;;;;;;409.03;375.43;;;22.60;11.70;;;;;;4994272;28;20442;-73
2022/10/16 10:34:31;;;;;;;654.60;602.73;;;22.80;10.50;;;;;;4992911;28;20439;-73
2022/10/16 10:37:23;;;;;;;468.00;430.83;;;23.10;9.70;;;;;;4994223;28;20443;-72
2022/10/16 10:40:18;;;;;;;643.07;577.97;;;23.30;9.80;;;;;;4994021;28;20431;-74
2022/10/16 10:42:57;;;;;;;683.83;629.70;;;23.60;9.50;;;;;;4993599;28;20554;-74
2022/10/16 10:45:43;;;;;;;833.13;766.77;;;23.70;8.00;;;;;;5002202;28;20528;-73
2022/10/16 10:48:23;;;;;;;763.37;702.17;;;23.60;8.40;;;;;;5013626;28;20920;-74
2022/10/16 10:50:54;;;;;;;702.37;647.53;;;23.60;9.10;;;;;;5014440;28;20411;-72
2022/10/16 10:53:33;;;;;;;671.10;620.33;;;23.60;8.00;;;;;;5014402;28;20430;-73
2022/10/16 10:56:04;;;;;;;612.47;567.83;;;23.40;7.90;;;;;;5013742;28;20577;-73
2022/10/16 10:58:49;;;;;;;611.07;562.53;;;23.40;8.00;;;;;;5011061;28;20421;-71
2022/10/16 11:01:21;;;;;;;730.07;672.87;;;23.30;8.50;;;;;;4993414;28;20432;-72
2022/10/16 11:04:09;;;;;;;544.03;501.23;;;23.30;7.50;;;;;;4991710;28;20840;-72
2022/10/16 11:06:42;;;;;;;739.37;681.27;;;23.20;8.10;;;;;;4992932;28;20463;-71
2022/10/16 11:09:31;;;;;;;752.23;692.17;;;23.10;9.10;;;;;;4992920;28;20404;-71
2022/10/16 11:12:11;;;;;;;742.63;680.40;;;23.10;9.70;;;;;;4992754;28;20772;-72
2022/10/16 11:14:56;;;;;;;653.60;595.27;;;23.20;7.70;;;;;;5010303;28;20493;-72
2022/10/16 11:17:47;;;;;;;695.37;636.20;;;23.20;8.20;;;;;;5011496;28;20522;-71
2022/10/16 11:20:33;;;;;;;703.43;647.30;;;23.10;8.00;;;;;;5012945;28;20423;-72
2022/10/16 11:23:17;;;;;;;711.70;652.97;;;23.20;5.40;;;;;;5012251;28;20466;-74
2022/10/16 11:25:45;;;;;;;635.93;584.50;;;23.20;4.80;;;;;;5012990;28;20798;-74
2022/10/16 11:28:38;;;;;;;698.83;646.83;;;23.20;4.10;;;;;;4996496;28;20435;-72
2022/10/16 11:31:39;;;;;;;584.90;540.20;;;23.30;5.60;;;;;;4992861;28;20980;-73
2022/10/16 11:34:08;;;;;;;605.30;557.50;;;23.30;4.50;;;;;;4988658;28;20433;-72
2022/10/16 11:36:42;;;;;;;928.00;851.37;;;23.20;5.80;;;;;;4992994;28;20435;-71
2022/10/16 11:39:20;;;;;;;705.43;650.07;;;23.10;4.80;;;;;;4991483;28;20428;-72
2022/10/16 11:41:52;;;;;;;825.13;754.03;;;23.10;5.70;;;;;;4999251;28;20427;-72
2022/10/16 11:44:33;;;;;;;736.13;677.50;;;23.20;5.10;;;;;;4992594;28;20417;-72
2022/10/16 11:47:22;;;;;;;590.57;544.17;;;23.10;5.40;;;;;;4992437;28;20554;-72
2022/10/16 11:49:52;;;;;;;770.03;707.37;;;23.10;5.00;;;;;;4983440;28;20422;-72
2022/10/16 11:52:31;;;;;;;771.97;711.33;;;23.10;5.10;;;;;;4992486;28;20416;-74
2022/10/16 11:55:47;;;;;;;712.67;651.83;;;23.10;4.60;;;;;;4997924;28;20438;-73
2022/10/16 11:58:22;;;;;;;616.90;573.93;;;23.20;4.00;;;;;;4986138;28;21046;-75
2022/10/16 12:01:08;;;;;;;598.33;548.97;;;23.30;4.10;;;;;;5010817;28;21026;-73
2022/10/16 12:03:54;;;;;;;648.60;592.80;;;23.50;4.40;;;;;;5010828;28;20466;-72
2022/10/16 12:06:44;;;;;;;684.07;630.27;;;23.60;4.30;;;;;;5010517;28;20443;-71
2022/10/16 12:09:20;;;;;;;843.17;766.97;;;23.60;4.10;;;;;;5003820;28;20467;-73
2022/10/16 12:11:46;;;;;;;737.10;682.77;;;23.50;4.20;;;;;;4990810;28;20419;-73
2022/10/16 12:14:12;;;;;;;773.40;710.47;;;23.50;4.20;;;;;;4992472;28;20954;-72
2022/10/16 12:16:58;;;;;;;702.30;645.10;;;23.60;4.40;;;;;;4992473;28;20244;-74
2022/10/16 12:19:26;;;;;;;593.07;542.43;;;23.60;5.40;;;;;;4992604;28;20649;-72
2022/10/16 12:21:55;;;;;;;762.53;700.67;;;23.70;5.20;;;;;;4992317;28;20847;-73
2022/10/16 12:24:40;;;;;;;756.67;694.47;;;23.80;4.30;;;;;;5008010;28;20466;-72
2022/10/16 12:27:27;;;;;;;910.60;833.97;;;23.70;4.50;;;;;;5011756;28;20442;-71